sensor_id;sensor_type;location;lat;lon;timestamp;pressure;altitude;pressure_sealevel;temperature;humidity
14273;BME280;7220;49.450;11.052;2023-05-09T00:01:16;98524.84;;;16.31;57.64
14273;BME280;7220;49.450;11.052;2023-05-09T00:05:16;98529.50;;;16.29;57.87
14273;BME280;7220;49.450;11.052;2023-05-09T00:09:17;98515.22;;;16.29;57.49
14273;BME280;7220;49.450;11.052;2023-05-09T00:13:17;98511.69;;;16.28;57.28
14273;BME280;7220;49.450;11.052;2023-05-09T00:17:18;98509.34;;;16.23;57.87
14273;BME280;7220;49.450;11.052;2023-05-09T00:21:18;98512.66;;;16.27;56.94
14273;BME280;7220;49.450;11.052;2023-05-09T00:25:18;98527.03;;;16.26;57.46
14273;BME280;7220;49.450;11.052;2023-05-09T00:29:19;98518.13;;;16.26;57.08
14273;BME280;7220;49.450;11.052;2023-05-09T00:33:20;98515.59;;;15.98;57.87
14273;BME280;7220;49.450;11.052;2023-05-09T00:37:20;98505.16;;;16.19;57.71
14273;BME280;7220;49.450;11.052;2023-05-09T00:41:20;98498.94;;;16.19;57.43
14273;BME280;7220;49.450;11.052;2023-05-09T00:45:21;98498.81;;;16.20;57.72
14273;BME280;7220;49.450;11.052;2023-05-09T00:49:21;98498.81;;;16.20;57.66
14273;BME280;7220;49.450;11.052;2023-05-09T00:53:21;98493.59;;;16.06;57.65
14273;BME280;7220;49.450;11.052;2023-05-09T00:57:23;98490.50;;;15.99;57.79
14273;BME280;7220;49.450;11.052;2023-05-09T01:01:23;98484.03;;;16.15;57.58
14273;BME280;7220;49.450;11.052;2023-05-09T01:05:29;98480.06;;;16.07;58.23
14273;BME280;7220;49.450;11.052;2023-05-09T01:09:55;98472.59;;;16.00;57.63
14273;BME280;7220;49.450;11.052;2023-05-09T01:22:12;98469.56;;;16.17;57.26
14273;BME280;7220;49.450;11.052;2023-05-09T01:30:23;98476.44;;;16.08;58.10
14273;BME280;7220;49.450;11.052;2023-05-09T01:34:25;98458.78;;;15.93;58.59
14273;BME280;7220;49.450;11.052;2023-05-09T01:38:28;98451.16;;;16.00;58.19
14273;BME280;7220;49.450;11.052;2023-05-09T01:42:37;98454.63;;;15.89;58.66
14273;BME280;7220;49.450;11.052;2023-05-09T01:46:39;98453.84;;;16.00;59.01
14273;BME280;7220;49.450;11.052;2023-05-09T01:50:40;98467.31;;;16.11;57.99
14273;BME280;7220;49.450;11.052;2023-05-09T01:54:43;98439.97;;;16.06;58.23
14273;BME280;7220;49.450;11.052;2023-05-09T01:58:45;98442.53;;;16.07;58.16
14273;BME280;7220;49.450;11.052;2023-05-09T02:02:47;98446.03;;;15.84;59.48
14273;BME280;7220;49.450;11.052;2023-05-09T02:06:49;98437.50;;;16.03;59.48
14273;BME280;7220;49.450;11.052;2023-05-09T02:10:50;98423.69;;;16.09;58.74
14273;BME280;7220;49.450;11.052;2023-05-09T02:14:50;98436.53;;;16.17;58.39
14273;BME280;7220;49.450;11.052;2023-05-09T02:18:51;98438.28;;;16.05;59.41
14273;BME280;7220;49.450;11.052;2023-05-09T02:22:51;98445.56;;;16.03;58.95
14273;BME280;7220;49.450;11.052;2023-05-09T02:26:53;98453.38;;;16.06;59.06
14273;BME280;7220;49.450;11.052;2023-05-09T02:30:56;98447.50;;;16.01;59.79
14273;BME280;7220;49.450;11.052;2023-05-09T02:35:00;98440.19;;;16.03;58.81
14273;BME280;7220;49.450;11.052;2023-05-09T02:39:00;98442.06;;;15.89;59.42
14273;BME280;7220;49.450;11.052;2023-05-09T02:43:01;98435.28;;;15.97;59.09
14273;BME280;7220;49.450;11.052;2023-05-09T02:47:02;98449.22;;;16.02;59.18
14273;BME280;7220;49.450;11.052;2023-05-09T02:51:03;98442.03;;;16.02;58.15
14273;BME280;7220;49.450;11.052;2023-05-09T02:55:03;98425.13;;;15.76;58.56
14273;BME280;7220;49.450;11.052;2023-05-09T02:59:04;98439.81;;;15.83;59.50
14273;BME280;7220;49.450;11.052;2023-05-09T03:03:04;98426.09;;;15.88;58.40
14273;BME280;7220;49.450;11.052;2023-05-09T03:07:05;98435.94;;;15.87;58.56
14273;BME280;7220;49.450;11.052;2023-05-09T03:11:05;98437.00;;;15.72;59.08
14273;BME280;7220;49.450;11.052;2023-05-09T03:15:06;98426.09;;;15.62;58.80
14273;BME280;7220;49.450;11.052;2023-05-09T03:19:07;98433.19;;;15.63;58.61
14273;BME280;7220;49.450;11.052;2023-05-09T03:23:07;98423.53;;;15.48;58.36
14273;BME280;7220;49.450;11.052;2023-05-09T03:27:09;98418.81;;;15.51;58.57
14273;BME280;7220;49.450;11.052;2023-05-09T03:31:09;98432.09;;;15.53;57.29
14273;BME280;7220;49.450;11.052;2023-05-09T03:35:09;98424.19;;;15.51;58.04
14273;BME280;7220;49.450;11.052;2023-05-09T03:39:10;98420.75;;;15.49;57.98
14273;BME280;7220;49.450;11.052;2023-05-09T03:43:10;98415.25;;;15.64;57.37
14273;BME280;7220;49.450;11.052;2023-05-09T03:47:10;98418.59;;;15.67;56.66
14273;BME280;7220;49.450;11.052;2023-05-09T03:51:11;98412.81;;;15.60;57.43
14273;BME280;7220;49.450;11.052;2023-05-09T03:55:11;98408.13;;;15.38;57.47
14273;BME280;7220;49.450;11.052;2023-05-09T03:59:11;98434.06;;;15.38;58.58
14273;BME280;7220;49.450;11.052;2023-05-09T04:03:12;98422.03;;;15.30;57.51
14273;BME280;7220;49.450;11.052;2023-05-09T04:07:12;98428.25;;;15.31;58.07
14273;BME280;7220;49.450;11.052;2023-05-09T04:11:13;98416.78;;;15.29;58.29
14273;BME280;7220;49.450;11.052;2023-05-09T04:15:13;98444.00;;;15.23;59.00
14273;BME280;7220;49.450;11.052;2023-05-09T04:19:13;98430.94;;;15.18;58.29
14273;BME280;7220;49.450;11.052;2023-05-09T04:23:13;98434.13;;;15.23;58.31
14273;BME280;7220;49.450;11.052;2023-05-09T04:27:14;98422.69;;;15.21;58.80
14273;BME280;7220;49.450;11.052;2023-05-09T04:31:14;98420.53;;;15.26;57.67
14273;BME280;7220;49.450;11.052;2023-05-09T04:35:14;98412.19;;;15.18;58.49
14273;BME280;7220;49.450;11.052;2023-05-09T04:39:15;98424.81;;;15.16;58.72
14273;BME280;7220;49.450;11.052;2023-05-09T04:43:15;98429.34;;;15.28;58.68
14273;BME280;7220;49.450;11.052;2023-05-09T04:47:15;98428.06;;;15.34;57.76
14273;BME280;7220;49.450;11.052;2023-05-09T04:51:16;98437.03;;;15.20;58.46
14273;BME280;7220;49.450;11.052;2023-05-09T04:55:16;98433.28;;;15.10;58.97
14273;BME280;7220;49.450;11.052;2023-05-09T04:59:16;98429.53;;;15.25;57.98
14273;BME280;7220;49.450;11.052;2023-05-09T05:03:17;98437.03;;;15.20;58.65
14273;BME280;7220;49.450;11.052;2023-05-09T05:07:17;98429.03;;;15.46;57.74
14273;BME280;7220;49.450;11.052;2023-05-09T05:11:17;98438.53;;;15.50;57.18
14273;BME280;7220;49.450;11.052;2023-05-09T05:15:18;98423.31;;;15.64;56.92
14273;BME280;7220;49.450;11.052;2023-05-09T05:19:18;98421.47;;;15.77;56.11
14273;BME280;7220;49.450;11.052;2023-05-09T05:23:19;98429.94;;;15.71;56.38
14273;BME280;7220;49.450;11.052;2023-05-09T05:27:19;98427.63;;;15.53;56.54
14273;BME280;7220;49.450;11.052;2023-05-09T05:31:20;98431.88;;;15.82;55.39
14273;BME280;7220;49.450;11.052;2023-05-09T05:35:20;98427.81;;;15.76;55.61
14273;BME280;7220;49.450;11.052;2023-05-09T05:39:22;98434.00;;;15.76;55.56
14273;BME280;7220;49.450;11.052;2023-05-09T05:43:22;98407.03;;;15.54;54.66
14273;BME280;7220;49.450;11.052;2023-05-09T05:47:22;98409.50;;;15.70;53.61
14273;BME280;7220;49.450;11.052;2023-05-09T05:51:23;98421.59;;;15.88;53.66
14273;BME280;7220;49.450;11.052;2023-05-09T05:55:23;98405.34;;;16.03;52.46
14273;BME280;7220;49.450;11.052;2023-05-09T05:59:23;98415.06;;;16.17;51.80
14273;BME280;7220;49.450;11.052;2023-05-09T06:03:24;98413.19;;;16.06;52.19
14273;BME280;7220;49.450;11.052;2023-05-09T06:07:24;98405.59;;;16.00;52.28
14273;BME280;7220;49.450;11.052;2023-05-09T06:11:24;98405.34;;;16.03;51.54
14273;BME280;7220;49.450;11.052;2023-05-09T06:15:25;98402.91;;;16.00;51.17
14273;BME280;7220;49.450;11.052;2023-05-09T06:19:25;98396.75;;;15.86;51.51
14273;BME280;7220;49.450;11.052;2023-05-09T06:23:26;98400.56;;;15.82;51.23
14273;BME280;7220;49.450;11.052;2023-05-09T06:27:26;98384.09;;;15.62;50.65
14273;BME280;7220;49.450;11.052;2023-05-09T06:31:26;98388.16;;;15.68;51.33
14273;BME280;7220;49.450;11.052;2023-05-09T06:35:27;98386.44;;;15.54;51.02
14273;BME280;7220;49.450;11.052;2023-05-09T06:39:27;98389.78;;;15.58;51.48
14273;BME280;7220;49.450;11.052;2023-05-09T06:43:28;98385.72;;;15.52;51.18
14273;BME280;7220;49.450;11.052;2023-05-09T06:47:28;98364.81;;;15.57;51.04
14273;BME280;7220;49.450;11.052;2023-05-09T06:51:28;98351.00;;;15.51;51.10
14273;BME280;7220;49.450;11.052;2023-05-09T06:55:28;98354.09;;;15.57;51.77
14273;BME280;7220;49.450;11.052;2023-05-09T06:59:29;98340.06;;;15.54;51.52
14273;BME280;7220;49.450;11.052;2023-05-09T07:03:29;98336.84;;;15.61;51.55
14273;BME280;7220;49.450;11.052;2023-05-09T07:07:30;98328.81;;;15.99;49.75
14273;BME280;7220;49.450;11.052;2023-05-09T07:11:34;98319.66;;;15.77;50.84
14273;BME280;7220;49.450;11.052;2023-05-09T07:15:35;98331.63;;;15.97;49.81
14273;BME280;7220;49.450;11.052;2023-05-09T07:19:35;98342.44;;;15.96;49.29
14273;BME280;7220;49.450;11.052;2023-05-09T07:23:35;98313.09;;;15.94;48.94
14273;BME280;7220;49.450;11.052;2023-05-09T07:27:36;98324.88;;;15.91;48.54
14273;BME280;7220;49.450;11.052;2023-05-09T07:31:36;98334.69;;;16.04;49.16
14273;BME280;7220;49.450;11.052;2023-05-09T07:35:36;98315.34;;;15.87;49.54
